Time;durP1;ratioP1;P1;durP2;ratioP2;P2;SDS_P1;SDS_P2;PMS_P1;PMS_P2;Temp;Humidity;BMP_temperature;BMP_pressure;BME280_temperature;BME280_humidity;BME280_pressure;Samples;Min_cycle;Max_cycle;Signal;HPM_P1;HPM_P2
2022/06/02 00:00:58;;;;;;;;;;;13.40;89.90;;;;;;5076490;28;19908;-74
2022/06/02 00:03:39;;;;;;;;;;;13.50;89.50;;;;;;5094055;28;19908;-75
2022/06/02 00:06:11;;;;;;;;;;;13.40;90.00;;;;;;5092709;28;19915;-75
2022/06/02 00:08:42;;;;;;;;;;;13.30;90.10;;;;;;5081230;28;20006;-74
2022/06/02 00:11:14;;;;;;;;;;;13.30;90.30;;;;;;5077384;28;19908;-76
2022/06/02 00:14:03;;;;;;;;;;;13.10;90.40;;;;;;5076965;28;20009;-75
2022/06/02 00:16:33;;;;;;;;;;;13.00;90.70;;;;;;5076444;28;19915;-74
2022/06/02 00:19:02;;;;;;;;;;;13.00;90.90;;;;;;5077667;28;20438;-74
2022/06/02 00:21:44;;;;;;;;;;;12.90;91.20;;;;;;5080828;28;20391;-74
2022/06/02 00:24:25;;;;;;;;;;;12.90;90.80;;;;;;5076983;28;19919;-75
2022/06/02 00:26:57;;;;;;;;;;;12.90;90.90;;;;;;5077437;28;19958;-75
2022/06/02 00:29:41;;;;;;;;;;;13.00;90.40;;;;;;5077619;28;19916;-75
2022/06/02 00:32:11;;;;;;;;;;;12.80;90.60;;;;;;5076981;28;19909;-75
2022/06/02 00:34:37;;;;;;;;;;;12.80;91.50;;;;;;5076708;28;20338;-75
2022/06/02 00:37:12;;;;;;;;;;;12.80;90.70;;;;;;5086758;28;19947;-75
2022/06/02 00:39:38;;;;;;;;;;;12.70;91.10;;;;;;5081299;28;19913;-75
2022/06/02 00:42:22;;;;;;;;;;;12.90;90.60;;;;;;5073392;28;19909;-75
2022/06/02 00:44:53;;;;;;;;;;;12.90;91.00;;;;;;5088143;28;19915;-75
2022/06/02 00:47:21;;;;;;;;;;;12.60;91.50;;;;;;5093400;28;20280;-76
2022/06/02 00:50:10;;;;;;;;;;;12.60;90.60;;;;;;5093467;28;19998;-75
2022/06/02 00:52:45;;;;;;;;;;;12.70;90.60;;;;;;5084563;28;19912;-75
2022/06/02 00:58:10;;;;;;;;;;;12.60;91.20;;;;;;5093503;28;19963;-74
2022/06/02 01:00:43;;;;;;;;;;;12.60;91.10;;;;;;5093774;28;19908;-74
2022/06/02 01:03:08;;;;;;;;;;;12.60;91.10;;;;;;5092449;28;19961;-75
2022/06/02 01:05:46;;;;;;;;;;;12.60;91.20;;;;;;5088400;28;19908;-75
2022/06/02 01:08:40;;;;;;;;;;;12.60;91.20;;;;;;5078712;28;19960;-75
2022/06/02 01:11:20;;;;;;;;;;;12.50;91.70;;;;;;5073755;28;19912;-75
2022/06/02 01:13:51;;;;;;;;;;;12.50;91.90;;;;;;5073471;28;19915;-74
2022/06/02 01:16:32;;;;;;;;;;;12.40;91.90;;;;;;5073642;28;19908;-74
2022/06/02 01:19:14;;;;;;;;;;;12.40;91.70;;;;;;5073672;28;19958;-74
2022/06/02 01:21:59;;;;;;;;;;;12.40;91.80;;;;;;5087385;28;20396;-74
2022/06/02 01:24:28;;;;;;;;;;;12.40;91.60;;;;;;5091728;28;19953;-75
2022/06/02 01:26:53;;;;;;;;;;;12.40;91.40;;;;;;5092687;28;20566;-74
2022/06/02 01:29:34;;;;;;;;;;;12.50;91.20;;;;;;5092828;28;19939;-75
2022/06/02 01:32:06;;;;;;;;;;;12.40;91.50;;;;;;5092360;28;19977;-75
2022/06/02 01:34:50;;;;;;;;;;;12.40;91.40;;;;;;5092161;28;20410;-76
2022/06/02 01:37:19;;;;;;;;;;;12.40;91.80;;;;;;5081721;28;20272;-75
2022/06/02 01:39:53;;;;;;;;;;;12.40;91.50;;;;;;5074681;28;19999;-75
2022/06/02 01:42:28;;;;;;;;;;;12.40;92.30;;;;;;5072932;28;19959;-75
2022/06/02 01:44:56;;;;;;;;;;;12.40;92.70;;;;;;5071170;28;19957;-74
2022/06/02 01:47:22;;;;;;;;;;;12.40;91.90;;;;;;5072999;28;19952;-75
2022/06/02 01:50:07;;;;;;;;;;;12.50;91.50;;;;;;5071370;28;20376;-75
2022/06/02 01:52:48;;;;;;;;;;;12.50;91.50;;;;;;5084043;28;19915;-75
2022/06/02 01:55:16;;;;;;;;;;;12.40;91.80;;;;;;5091436;28;20424;-74
2022/06/02 01:58:02;;;;;;;;;;;12.30;92.00;;;;;;5090840;28;19908;-74
2022/06/02 02:00:30;;;;;;;;;;;12.20;92.30;;;;;;5091591;28;19916;-74
2022/06/02 02:03:08;;;;;;;;;;;12.40;91.50;;;;;;5091529;28;19915;-75
2022/06/02 02:05:39;;;;;;;;;;;12.30;91.50;;;;;;5086308;28;20006;-75
2022/06/02 02:08:17;;;;;;;;;;;12.20;92.20;;;;;;5081496;28;19923;-75
2022/06/02 02:10:43;;;;;;;;;;;12.20;91.80;;;;;;5075370;28;19920;-76
2022/06/02 02:13:08;;;;;;;;;;;12.00;92.60;;;;;;5071886;28;19909;-74
2022/06/02 02:15:49;;;;;;;;;;;11.90;92.50;;;;;;5073020;28;19917;-74
2022/06/02 02:18:35;;;;;;;;;;;11.80;93.30;;;;;;5091766;28;19908;-76
2022/06/02 02:21:15;;;;;;;;;;;11.70;93.00;;;;;;5091550;28;20331;-75
2022/06/02 02:23:47;;;;;;;;;;;11.60;93.60;;;;;;5091081;28;19920;-75
2022/06/02 02:26:42;;;;;;;;;;;11.60;93.80;;;;;;5072374;28;19908;-74
2022/06/02 02:29:22;;;;;;;;;;;11.60;93.40;;;;;;5060893;28;19920;-75
2022/06/02 02:31:53;;;;;;;;;;;11.60;93.30;;;;;;5071790;28;19932;-74
2022/06/02 02:34:26;;;;;;;;;;;11.50;93.60;;;;;;5084335;28;19999;-74
2022/06/02 02:36:52;;;;;;;;;;;11.50;93.80;;;;;;5080244;28;20265;-75
2022/06/02 02:39:29;;;;;;;;;;;11.40;94.00;;;;;;5078487;28;19909;-75
2022/06/02 02:41:58;;;;;;;;;;;11.30;94.00;;;;;;5071450;28;19990;-75
2022/06/02 02:44:36;;;;;;;;;;;11.20;95.20;;;;;;5071349;28;20258;-75
2022/06/02 02:47:06;;;;;;;;;;;11.00;95.90;;;;;;5071781;28;19923;-75
2022/06/02 02:49:36;;;;;;;;;;;11.10;94.80;;;;;;5071888;28;19909;-75
2022/06/02 02:52:14;;;;;;;;;;;11.10;95.10;;;;;;5071126;28;20362;-74
2022/06/02 02:54:43;;;;;;;;;;;11.10;95.20;;;;;;5071191;28;19947;-75
2022/06/02 02:57:27;;;;;;;;;;;11.00;95.40;;;;;;5072000;28;19908;-74
2022/06/02 03:00:02;;;;;;;;;;;10.90;96.20;;;;;;5070530;28;19908;-75
2022/06/02 03:02:46;;;;;;;;;;;10.80;96.10;;;;;;5071309;28;19908;-74
2022/06/02 03:05:17;;;;;;;;;;;10.60;97.00;;;;;;5070589;28;19909;-75
2022/06/02 03:07:43;;;;;;;;;;;10.60;97.30;;;;;;5084112;28;19955;-75
2022/06/02 03:10:17;;;;;;;;;;;10.50;97.50;;;;;;5072939;28;19955;-75
2022/06/02 03:12:49;;;;;;;;;;;10.50;98.40;;;;;;5071058;28;20380;-74
2022/06/02 03:15:15;;;;;;;;;;;10.40;98.70;;;;;;5069318;28;19923;-75
2022/06/02 03:17:48;;;;;;;;;;;10.40;98.90;;;;;;5090795;28;19915;-76
2022/06/02 03:20:26;;;;;;;;;;;10.30;99.90;;;;;;5090869;28;19915;-75
2022/06/02 03:22:51;;;;;;;;;;;10.20;99.90;;;;;;5089849;28;19922;-74
2022/06/02 03:25:20;;;;;;;;;;;10.20;99.90;;;;;;5090284;28;19908;-74
2022/06/02 03:28:04;;;;;;;;;;;10.20;99.90;;;;;;5090542;28;19916;-74
2022/06/02 03:30:34;;;;;;;;;;;10.10;99.90;;;;;;5090749;28;19916;-74
2022/06/02 03:33:05;;;;;;;;;;;10.00;99.90;;;;;;5090080;28;19958;-74
2022/06/02 03:35:34;;;;;;;;;;;10.00;99.90;;;;;;5086160;28;19951;-75
2022/06/02 03:38:17;;;;;;;;;;;10.10;99.90;;;;;;5079963;28;20391;-74
2022/06/02 03:40:52;;;;;;;;;;;10.10;99.90;;;;;;5076272;28;19999;-74
2022/06/02 03:43:28;;;;;;;;;;;10.20;99.90;;;;;;5068966;28;19913;-74
2022/06/02 03:46:04;;;;;;;;;;;10.20;99.90;;;;;;5071202;28;20281;-74
2022/06/02 03:48:30;;;;;;;;;;;10.10;99.90;;;;;;5071034;28;19913;-74
2022/06/02 03:51:11;;;;;;;;;;;10.10;99.90;;;;;;5071158;28;19915;-74
2022/06/02 03:53:53;;;;;;;;;;;10.20;99.90;;;;;;5070023;28;19909;-73
2022/06/02 03:56:27;;;;;;;;;;;10.20;99.90;;;;;;5084982;28;20385;-74
2022/06/02 03:59:02;;;;;;;;;;;10.40;99.90;;;;;;5090361;28;20217;-74
2022/06/02 04:01:41;;;;;;;;;;;10.50;99.90;;;;;;5087939;28;20315;-74
2022/06/02 04:04:23;;;;;;;;;;;10.50;99.90;;;;;;5087667;28;19916;-74
2022/06/02 04:06:57;;;;;;;;;;;10.50;99.90;;;;;;5081357;28;19931;-74
2022/06/02 04:09:28;;;;;;;;;;;10.60;99.90;;;;;;5070963;28;20365;-74
2022/06/02 04:14:56;;;;;;;;;;;10.60;99.90;;;;;;5070504;28;19915;-74
2022/06/02 04:17:30;;;;;;;;;;;10.60;99.90;;;;;;5073966;28;19909;-74
2022/06/02 04:22:52;;;;;;;;;;;10.60;99.90;;;;;;5093276;28;19923;-74
2022/06/02 04:25:17;;;;;;;;;;;10.60;99.90;;;;;;5093607;28;19951;-74
2022/06/02 04:27:48;;;;;;;;;;;10.80;99.90;;;;;;5094535;28;19956;-74
2022/06/02 04:30:23;;;;;;;;;;;10.90;99.90;;;;;;5093664;28;19908;-75
2022/06/02 04:32:56;;;;;;;;;;;11.00;99.90;;;;;;5093373;28;20010;-76
2022/06/02 04:35:40;;;;;;;;;;;11.20;99.90;;;;;;5090290;28;20372;-74
2022/06/02 04:38:24;;;;;;;;;;;11.40;99.90;;;;;;5080754;28;20333;-75
2022/06/02 04:40:50;;;;;;;;;;;11.70;99.30;;;;;;5074248;28;20396;-74
2022/06/02 04:43:19;;;;;;;;;;;11.70;99.70;;;;;;5073322;28;19908;-74
2022/06/02 04:46:04;;;;;;;;;;;11.80;99.60;;;;;;5074168;28;20244;-75
2022/06/02 04:48:51;;;;;;;;;;;12.00;99.00;;;;;;5073624;28;20404;-74
2022/06/02 04:51:31;;;;;;;;;;;12.10;98.20;;;;;;5088387;28;19908;-75
2022/06/02 04:54:01;;;;;;;;;;;12.20;98.90;;;;;;5092579;28;20003;-75
2022/06/02 04:56:38;;;;;;;;;;;12.20;97.80;;;;;;5093831;28;19915;-73
2022/06/02 04:59:11;;;;;;;;;;;12.20;97.60;;;;;;5094258;28;19912;-72
2022/06/02 05:01:52;;;;;;;;;;;12.30;98.10;;;;;;5092893;28;19911;-72
2022/06/02 05:04:27;;;;;;;;;;;12.20;97.80;;;;;;5092888;28;19908;-72
2022/06/02 05:07:00;;;;;;;;;;;12.30;98.20;;;;;;5080873;28;19913;-73
2022/06/02 05:09:35;;;;;;;;;;;12.40;98.30;;;;;;5083866;28;20366;-72
2022/06/02 05:12:19;;;;;;;;;;;12.40;97.10;;;;;;5073170;28;19908;-72
2022/06/02 05:14:53;;;;;;;;;;;12.40;96.60;;;;;;5072990;28;19915;-72
2022/06/02 05:17:36;;;;;;;;;;;12.40;96.40;;;;;;5086946;28;19915;-72
2022/06/02 05:20:04;;;;;;;;;;;12.40;96.50;;;;;;5092884;28;19908;-72
2022/06/02 05:22:37;;;;;;;;;;;12.40;97.60;;;;;;5092092;28;19923;-73
2022/06/02 05:25:03;;;;;;;;;;;12.40;97.50;;;;;;5092409;28;20432;-73
2022/06/02 05:27:49;;;;;;;;;;;12.50;96.70;;;;;;5092500;28;19999;-73
2022/06/02 05:30:23;;;;;;;;;;;12.60;98.80;;;;;;5061059;28;19909;-73
2022/06/02 05:33:07;;;;;;;;;;;12.80;96.50;;;;;;5092417;28;19923;-73
2022/06/02 05:35:42;;;;;;;;;;;13.20;95.80;;;;;;5075485;28;19909;-73
2022/06/02 05:38:19;;;;;;;;;;;13.60;96.40;;;;;;5076090;28;19951;-73
2022/06/02 05:40:56;;;;;;;;;;;13.80;94.60;;;;;;5073543;28;19909;-73
2022/06/02 05:43:41;;;;;;;;;;;14.00;93.40;;;;;;5072477;28;20293;-73
2022/06/02 05:46:18;;;;;;;;;;;14.70;93.00;;;;;;5087793;28;19951;-73
2022/06/02 05:48:49;;;;;;;;;;;14.70;92.20;;;;;;5092678;28;19963;-73
2022/06/02 05:51:41;;;;;;;;;;;14.70;93.50;;;;;;5092150;28;19914;-73
2022/06/02 05:54:12;;;;;;;;;;;15.30;92.20;;;;;;5068272;28;19914;-73
2022/06/02 05:56:49;;;;;;;;;;;14.90;92.20;;;;;;5073166;28;19908;-73
2022/06/02 05:59:21;;;;;;;;;;;15.20;91.40;;;;;;5071726;28;19952;-74
2022/06/02 06:02:02;;;;;;;;;;;15.70;91.20;;;;;;5072469;28;19971;-73
2022/06/02 06:04:43;;;;;;;;;;;15.60;91.40;;;;;;5077098;28;20289;-73
2022/06/02 06:07:28;;;;;;;;;;;15.40;90.40;;;;;;5083242;28;19918;-73
2022/06/02 06:09:56;;;;;;;;;;;15.30;90.00;;;;;;5076974;28;19909;-73
2022/06/02 06:12:22;;;;;;;;;;;14.90;90.80;;;;;;5092096;28;19908;-74
2022/06/02 06:14:54;;;;;;;;;;;15.50;91.10;;;;;;5091573;28;20332;-73
2022/06/02 06:17:20;;;;;;;;;;;15.00;88.70;;;;;;5092124;28;19909;-73
2022/06/02 06:19:57;;;;;;;;;;;14.70;91.90;;;;;;5092191;28;19962;-74
2022/06/02 06:22:23;;;;;;;;;;;15.50;90.70;;;;;;5091661;28;19916;-74
2022/06/02 06:24:55;;;;;;;;;;;16.70;86.80;;;;;;5091308;28;19978;-74
2022/06/02 06:27:21;;;;;;;;;;;17.20;82.10;;;;;;5091995;28;19965;-74
2022/06/02 06:30:07;;;;;;;;;;;17.50;82.40;;;;;;5092412;28;19908;-74
2022/06/02 06:32:35;;;;;;;;;;;17.50;81.80;;;;;;5091513;28;19961;-74
2022/06/02 06:35:01;;;;;;;;;;;17.40;81.60;;;;;;5090943;28;19939;-74
2022/06/02 06:37:35;;;;;;;;;;;17.80;79.80;;;;;;5074019;28;19955;-74
2022/06/02 06:40:30;;;;;;;;;;;17.30;82.50;;;;;;5077268;28;19908;-74
2022/06/02 06:43:03;;;;;;;;;;;16.90;81.80;;;;;;5031881;28;20300;-74
2022/06/02 06:45:37;;;;;;;;;;;17.30;81.80;;;;;;5071612;28;19957;-74
2022/06/02 06:48:12;;;;;;;;;;;16.90;82.70;;;;;;5072102;28;19919;-74
2022/06/02 06:50:40;;;;;;;;;;;17.10;82.30;;;;;;5085526;28;19955;-74
2022/06/02 06:53:08;;;;;;;;;;;17.00;80.50;;;;;;5089968;28;19908;-74
2022/06/02 06:55:46;;;;;;;;;;;17.50;81.70;;;;;;5091234;28;19915;-74
2022/06/02 06:58:22;;;;;;;;;;;17.60;78.90;;;;;;5091309;28;19943;-74
2022/06/02 07:01:06;;;;;;;;;;;18.00;79.60;;;;;;5091530;28;19909;-74
2022/06/02 07:03:50;;;;;;;;;;;18.80;74.70;;;;;;5090428;28;19908;-74
2022/06/02 07:06:31;;;;;;;;;;;19.20;75.00;;;;;;5086225;28;20359;-74
2022/06/02 07:09:35;;;;;;;;;;;19.50;77.30;;;;;;5073831;28;19999;-74
2022/06/02 07:15:11;;;;;;;;;;;19.60;74.80;;;;;;5028602;28;19979;-74
2022/06/02 07:17:45;;;;;;;;;;;20.10;71.50;;;;;;5076612;28;19939;-75
2022/06/02 07:20:27;;;;;;;;;;;20.20;73.60;;;;;;5071752;28;20336;-75
2022/06/02 07:23:05;;;;;;;;;;;20.50;77.50;;;;;;5070871;28;19920;-74
2022/06/02 07:25:57;;;;;;;;;;;20.00;70.40;;;;;;5071575;28;19912;-74
2022/06/02 07:28:29;;;;;;;;;;;20.30;73.00;;;;;;5085419;28;19913;-75
2022/06/02 07:31:13;;;;;;;;;;;20.30;76.10;;;;;;5090979;28;20005;-75
2022/06/02 07:33:57;;;;;;;;;;;20.50;73.70;;;;;;5088772;28;19909;-75
2022/06/02 07:36:41;;;;;;;;;;;20.80;70.10;;;;;;5085474;28;19928;-75
2022/06/02 07:39:06;;;;;;;;;;;20.60;68.90;;;;;;5074906;28;19935;-75
2022/06/02 07:41:51;;;;;;;;;;;21.10;70.00;;;;;;5070943;28;19959;-75
2022/06/02 07:44:24;;;;;;;;;;;21.40;69.10;;;;;;5070854;28;19913;-75
2022/06/02 07:46:49;;;;;;;;;;;22.00;70.80;;;;;;5071444;28;20412;-75
2022/06/02 07:49:14;;;;;;;;;;;22.20;67.10;;;;;;5071035;28;19908;-75
2022/06/02 07:51:49;;;;;;;;;;;21.30;66.80;;;;;;5085751;28;20350;-75
2022/06/02 07:54:33;;;;;;;;;;;21.20;69.40;;;;;;5075793;28;19981;-75
2022/06/02 07:57:22;;;;;;;;;;;21.90;67.30;;;;;;5073697;28;20163;-75
2022/06/02 08:00:06;;;;;;;;;;;22.00;66.80;;;;;;5075361;28;19916;-75
2022/06/02 08:02:32;;;;;;;;;;;21.80;66.00;;;;;;5074749;28;20268;-75
2022/06/02 08:05:07;;;;;;;;;;;21.30;74.80;;;;;;5074791;28;19912;-75
2022/06/02 08:07:45;;;;;;;;;;;22.70;68.10;;;;;;5088083;28;19962;-75
2022/06/02 08:10:21;;;;;;;;;;;22.50;69.50;;;;;;5075564;28;19982;-76
2022/06/02 08:12:59;;;;;;;;;;;22.40;69.50;;;;;;5078882;28;19913;-76
2022/06/02 08:15:43;;;;;;;;;;;22.50;68.90;;;;;;5074420;28;19919;-75
2022/06/02 08:18:44;;;;;;;;;;;22.70;69.70;;;;;;5094092;28;20246;-75
2022/06/02 08:21:22;;;;;;;;;;;22.50;66.90;;;;;;5026196;28;19944;-75
2022/06/02 08:23:53;;;;;;;;;;;22.40;68.60;;;;;;5068309;28;19908;-75
2022/06/02 08:26:25;;;;;;;;;;;22.20;69.10;;;;;;5074766;28;19909;-75
2022/06/02 08:29:00;;;;;;;;;;;22.80;71.80;;;;;;5087987;28;19957;-75
2022/06/02 08:31:44;;;;;;;;;;;22.80;67.30;;;;;;5091985;28;19990;-75
2022/06/02 08:34:21;;;;;;;;;;;22.30;66.30;;;;;;5078048;28;19920;-75
2022/06/02 08:36:52;;;;;;;;;;;23.50;71.30;;;;;;5084168;28;20007;-75
2022/06/02 08:39:18;;;;;;;;;;;22.70;65.50;;;;;;5076522;28;20270;-75
2022/06/02 08:42:03;;;;;;;;;;;22.70;64.70;;;;;;5087811;28;19909;-75
2022/06/02 08:44:28;;;;;;;;;;;23.10;66.00;;;;;;5086169;28;20377;-75
2022/06/02 08:47:33;;;;;;;;;;;23.10;67.40;;;;;;5085071;28;19955;-75
2022/06/02 08:50:25;;;;;;;;;;;23.20;66.80;;;;;;5027759;28;19910;-75
2022/06/02 08:53:09;;;;;;;;;;;24.30;65.00;;;;;;5014385;28;20000;-75
2022/06/02 08:55:40;;;;;;;;;;;24.80;60.60;;;;;;5077167;28;19953;-75
2022/06/02 08:58:15;;;;;;;;;;;24.70;69.40;;;;;;5082944;28;19990;-75
2022/06/02 09:00:43;;;;;;;;;;;25.30;60.70;;;;;;5078480;28;20443;-75
2022/06/02 09:03:26;;;;;;;;;;;24.80;62.80;;;;;;5081124;28;20327;-75
2022/06/02 09:06:05;;;;;;;;;;;25.10;58.40;;;;;;5080353;28;20419;-75
2022/06/02 09:08:31;;;;;;;;;;;24.30;61.00;;;;;;5073287;28;19993;-75
2022/06/02 09:10:59;;;;;;;;;;;24.70;65.80;;;;;;5073665;28;19908;-75
2022/06/02 09:13:43;;;;;;;;;;;24.10;61.90;;;;;;5075534;28;20277;-75
2022/06/02 09:16:27;;;;;;;;;;;24.80;64.40;;;;;;5073250;28;20011;-75
2022/06/02 09:19:01;;;;;;;;;;;24.20;66.80;;;;;;5086956;28;20305;-75
2022/06/02 09:21:56;;;;;;;;;;;23.70;59.70;;;;;;5084053;28;19923;-75
2022/06/02 09:24:27;;;;;;;;;;;24.20;64.60;;;;;;5023902;28;19963;-75
2022/06/02 09:26:53;;;;;;;;;;;24.70;69.10;;;;;;5073608;28;19912;-75
2022/06/02 09:29:20;;;;;;;;;;;25.50;63.20;;;;;;5073547;28;20011;-76
2022/06/02 09:31:45;;;;;;;;;;;24.30;58.50;;;;;;5072668;28;19962;-75
2022/06/02 09:34:14;;;;;;;;;;;25.10;64.50;;;;;;5072168;28;19908;-76
2022/06/02 09:37:05;;;;;;;;;;;25.50;63.10;;;;;;5073055;28;20193;-76
2022/06/02 09:39:31;;;;;;;;;;;25.20;67.00;;;;;;5064382;28;20361;-76
2022/06/02 09:41:56;;;;;;;;;;;25.80;63.60;;;;;;5092010;28;19912;-77
2022/06/02 09:44:22;;;;;;;;;;;24.20;62.40;;;;;;5091838;28;20031;-77
2022/06/02 09:47:08;;;;;;;;;;;24.00;66.80;;;;;;5092123;28;19915;-77
2022/06/02 09:49:52;;;;;;;;;;;24.20;58.40;;;;;;5044236;28;19916;-76
2022/06/02 09:52:29;;;;;;;;;;;24.30;65.30;;;;;;5078107;28;19916;-78
2022/06/02 09:54:56;;;;;;;;;;;23.50;64.30;;;;;;5072770;28;19954;-77
2022/06/02 10:00:34;;;;;;;;;;;23.10;63.00;;;;;;5088357;28;20333;-77
2022/06/02 10:02:59;;;;;;;;;;;23.10;64.80;;;;;;5090823;28;20300;-77
2022/06/02 10:05:31;;;;;;;;;;;24.00;61.40;;;;;;5086681;28;19915;-76
2022/06/02 10:08:00;;;;;;;;;;;23.50;60.30;;;;;;5072345;28;19916;-76
2022/06/02 10:10:43;;;;;;;;;;;23.10;66.20;;;;;;5071819;28;19908;-77
2022/06/02 10:13:38;;;;;;;;;;;24.10;60.00;;;;;;5083077;28;19908;-77
2022/06/02 10:16:06;;;;;;;;;;;24.70;61.80;;;;;;5020207;28;20388;-77
2022/06/02 10:18:35;;;;;;;;;;;26.00;62.00;;;;;;5072197;28;19955;-77
2022/06/02 10:21:00;;;;;;;;;;;25.90;60.60;;;;;;5081271;28;19919;-77
2022/06/02 10:23:25;;;;;;;;;;;25.50;57.10;;;;;;5072231;28;19908;-77
2022/06/02 10:25:58;;;;;;;;;;;26.30;59.00;;;;;;5080017;28;19962;-74
2022/06/02 10:28:32;;;;;;;;;;;26.80;61.00;;;;;;5072004;28;19912;-75
2022/06/02 10:31:00;;;;;;;;;;;27.20;59.30;;;;;;5072254;28;19909;-75
2022/06/02 10:33:38;;;;;;;;;;;26.90;55.60;;;;;;5070859;28;19912;-77
2022/06/02 10:36:27;;;;;;;;;;;25.50;57.80;;;;;;5088237;28;19916;-77
2022/06/02 10:39:10;;;;;;;;;;;26.10;63.70;;;;;;5060829;28;19962;-77
2022/06/02 10:41:38;;;;;;;;;;;25.60;59.40;;;;;;5084553;28;19908;-77
2022/06/02 10:44:06;;;;;;;;;;;25.50;61.40;;;;;;5079481;28;19916;-77
2022/06/02 10:46:39;;;;;;;;;;;25.10;58.30;;;;;;5084676;28;19969;-74
2022/06/02 10:49:26;;;;;;;;;;;24.60;65.90;;;;;;5077087;28;19919;-75
2022/06/02 10:52:10;;;;;;;;;;;25.00;59.80;;;;;;5086454;28;19909;-74
2022/06/02 10:54:54;;;;;;;;;;;24.80;58.20;;;;;;5070322;28;19915;-75
2022/06/02 10:57:38;;;;;;;;;;;26.00;58.30;;;;;;5080786;28;20327;-75
2022/06/02 11:00:09;;;;;;;;;;;25.20;58.60;;;;;;5083380;28;20364;-78
2022/06/02 11:02:35;;;;;;;;;;;25.40;64.00;;;;;;5083323;28;19915;-77
2022/06/02 11:05:12;;;;;;;;;;;26.10;62.30;;;;;;5080290;28;19908;-77
2022/06/02 11:07:42;;;;;;;;;;;24.50;57.50;;;;;;5069834;28;19948;-75
2022/06/02 11:10:21;;;;;;;;;;;25.40;61.60;;;;;;5071287;28;20104;-76
2022/06/02 11:13:06;;;;;;;;;;;25.70;58.00;;;;;;5069504;28;19908;-76
2022/06/02 11:15:41;;;;;;;;;;;25.50;60.50;;;;;;5071017;28;19908;-75
2022/06/02 11:18:26;;;;;;;;;;;25.40;60.30;;;;;;5071387;28;19942;-75
2022/06/02 11:20:51;;;;;;;;;;;25.40;61.90;;;;;;5078234;28;20328;-76
2022/06/02 11:23:32;;;;;;;;;;;26.30;59.10;;;;;;5082431;28;19913;-75
2022/06/02 11:25:57;;;;;;;;;;;26.40;59.90;;;;;;5070851;28;19999;-76
2022/06/02 11:28:41;;;;;;;;;;;25.90;58.60;;;;;;5069755;28;20003;-76
2022/06/02 11:31:24;;;;;;;;;;;25.80;56.70;;;;;;5071060;28;20378;-76
2022/06/02 11:33:50;;;;;;;;;;;25.30;59.00;;;;;;5069291;28;19909;-76
2022/06/02 11:36:18;;;;;;;;;;;25.60;58.60;;;;;;5069695;28;19999;-76
2022/06/02 11:38:47;;;;;;;;;;;25.40;59.30;;;;;;5084227;28;19983;-76
2022/06/02 11:41:18;;;;;;;;;;;24.80;61.00;;;;;;5072036;28;20317;-75
2022/06/02 11:43:44;;;;;;;;;;;25.30;62.50;;;;;;5071001;28;19916;-75
2022/06/02 11:46:12;;;;;;;;;;;25.40;57.50;;;;;;5070996;28;19919;-77
2022/06/02 11:49:03;;;;;;;;;;;25.00;62.50;;;;;;5071055;28;19913;-76
2022/06/02 11:51:31;;;;;;;;;;;24.70;62.20;;;;;;5078583;28;20011;-76
2022/06/02 11:54:05;;;;;;;;;;;25.10;60.50;;;;;;5081729;28;19908;-76
2022/06/02 11:56:37;;;;;;;;;;;24.60;59.80;;;;;;5081513;28;19916;-76
2022/06/02 11:59:21;;;;;;;;;;;24.60;58.30;;;;;;5082326;28;20361;-76
2022/06/02 12:02:07;;;;;;;;;;;25.60;63.10;;;;;;5070381;28;19969;-76
2022/06/02 12:04:42;;;;;;;;;;;25.70;58.40;;;;;;5079681;28;19965;-76
2022/06/02 12:07:21;;;;;;;;;;;24.90;58.40;;;;;;5077457;28;19909;-76
2022/06/02 12:09:52;;;;;;;;;;;24.60;61.00;;;;;;5070693;28;19916;-76
2022/06/02 12:12:25;;;;;;;;;;;24.80;62.40;;;;;;5083597;28;19965;-76
2022/06/02 12:15:03;;;;;;;;;;;25.40;60.00;;;;;;5069767;28;19915;-76
2022/06/02 12:17:44;;;;;;;;;;;25.30;63.00;;;;;;5070843;28;19908;-75
2022/06/02 12:20:19;;;;;;;;;;;25.70;63.00;;;;;;5077311;28;19912;-76
2022/06/02 12:23:03;;;;;;;;;;;25.00;61.60;;;;;;5085702;28;19943;-76
2022/06/02 12:25:42;;;;;;;;;;;24.90;61.30;;;;;;5083589;28;19995;-76
2022/06/02 12:28:17;;;;;;;;;;;24.90;62.40;;;;;;5090199;28;19912;-76
2022/06/02 12:31:01;;;;;;;;;;;24.90;64.20;;;;;;5071464;28;19916;-76
2022/06/02 12:33:29;;;;;;;;;;;24.60;60.80;;;;;;5088086;28;19915;-75
2022/06/02 12:36:14;;;;;;;;;;;24.30;60.30;;;;;;5087981;28;19909;-77
2022/06/02 12:38:46;;;;;;;;;;;24.90;60.50;;;;;;5079589;28;19915;-76
2022/06/02 12:41:22;;;;;;;;;;;24.70;62.90;;;;;;5080945;28;20362;-76
2022/06/02 12:43:47;;;;;;;;;;;24.50;61.70;;;;;;5074892;28;19998;-76
2022/06/02 12:46:15;;;;;;;;;;;24.80;59.70;;;;;;5077069;28;20454;-76
2022/06/02 12:48:43;;;;;;;;;;;26.70;59.40;;;;;;5072467;28;19916;-77
2022/06/02 12:51:08;;;;;;;;;;;28.80;59.90;;;;;;5076225;28;19908;-77
2022/06/02 12:53:52;;;;;;;;;;;29.30;54.20;;;;;;5077619;28;20462;-77
2022/06/02 12:56:18;;;;;;;;;;;27.90;54.30;;;;;;5071316;28;20145;-77
2022/06/02 12:59:01;;;;;;;;;;;28.40;57.40;;;;;;5081034;28;19919;-76
2022/06/02 13:01:38;;;;;;;;;;;27.90;52.80;;;;;;5070563;28;19913;-76
2022/06/02 13:04:29;;;;;;;;;;;26.50;54.60;;;;;;5074443;28;20277;-76
2022/06/02 13:06:55;;;;;;;;;;;25.80;56.50;;;;;;5070759;28;20047;-75
2022/06/02 13:09:36;;;;;;;;;;;26.10;58.20;;;;;;5072240;28;20387;-76
2022/06/02 13:12:19;;;;;;;;;;;25.70;58.90;;;;;;5091272;28;19908;-76
2022/06/02 13:14:57;;;;;;;;;;;25.90;60.40;;;;;;5092178;28;19916;-76
2022/06/02 13:17:41;;;;;;;;;;;25.90;59.30;;;;;;5091119;28;20335;-76
2022/06/02 13:20:09;;;;;;;;;;;25.00;62.80;;;;;;5086308;28;19934;-75
2022/06/02 13:22:54;;;;;;;;;;;25.10;61.00;;;;;;5079083;28;19920;-75
2022/06/02 13:25:35;;;;;;;;;;;25.10;59.70;;;;;;5087075;28;19912;-75
2022/06/02 13:28:03;;;;;;;;;;;24.40;60.00;;;;;;5092072;28;20350;-76
2022/06/02 13:30:29;;;;;;;;;;;24.20;62.60;;;;;;5092269;28;19908;-76
2022/06/02 13:33:13;;;;;;;;;;;24.40;64.30;;;;;;5090174;28;20227;-76
2022/06/02 13:35:57;;;;;;;;;;;24.00;62.70;;;;;;5091379;28;19909;-76
2022/06/02 13:38:29;;;;;;;;;;;24.20;64.00;;;;;;5091972;28;20174;-75
2022/06/02 13:40:54;;;;;;;;;;;23.90;65.70;;;;;;5092297;28;19908;-76
2022/06/02 13:43:35;;;;;;;;;;;24.10;68.10;;;;;;5091768;28;19912;-76
2022/06/02 13:46:18;;;;;;;;;;;23.70;65.60;;;;;;5092693;28;20336;-75
2022/06/02 13:49:02;;;;;;;;;;;23.50;64.20;;;;;;5091818;28;19916;-76
2022/06/02 13:51:47;;;;;;;;;;;23.10;69.30;;;;;;5086185;28;20356;-75
2022/06/02 13:57:30;;;;;;;;;;;22.20;70.90;;;;;;5081570;28;20308;-76
2022/06/02 14:00:08;;;;;;;;;;;23.10;66.20;;;;;;5073746;28;19909;-76
2022/06/02 14:02:36;;;;;;;;;;;24.00;64.70;;;;;;5078573;28;19916;-76
2022/06/02 14:05:04;;;;;;;;;;;25.10;59.00;;;;;;5076699;28;20138;-76
2022/06/02 14:07:48;;;;;;;;;;;23.70;61.70;;;;;;5073823;28;19923;-76
2022/06/02 14:10:25;;;;;;;;;;;23.10;63.80;;;;;;5085866;28;19908;-76
2022/06/02 14:13:10;;;;;;;;;;;22.40;65.40;;;;;;5090438;28;19908;-76
2022/06/02 14:15:51;;;;;;;;;;;22.30;68.70;;;;;;5091683;28;20361;-76
2022/06/02 14:18:44;;;;;;;;;;;22.00;66.80;;;;;;5091655;28;20330;-76
2022/06/02 14:21:22;;;;;;;;;;;21.80;66.60;;;;;;5058899;28;19916;-76
2022/06/02 14:23:53;;;;;;;;;;;21.80;67.80;;;;;;5082346;28;19931;-76
2022/06/02 14:26:31;;;;;;;;;;;21.80;69.20;;;;;;5091756;28;20357;-76
2022/06/02 14:29:11;;;;;;;;;;;21.80;68.30;;;;;;5091330;28;20373;-76
2022/06/02 14:31:56;;;;;;;;;;;21.70;68.70;;;;;;5091054;28;20581;-76
2022/06/02 14:34:33;;;;;;;;;;;21.50;68.40;;;;;;5088818;28;19991;-76
2022/06/02 14:37:04;;;;;;;;;;;21.30;69.10;;;;;;5091475;28;19908;-76
2022/06/02 14:39:29;;;;;;;;;;;21.20;72.30;;;;;;5091243;28;20386;-76
2022/06/02 14:42:13;;;;;;;;;;;21.20;69.20;;;;;;5090731;28;19947;-76
2022/06/02 14:44:49;;;;;;;;;;;21.10;74.00;;;;;;5071207;28;20290;-76
2022/06/02 14:47:25;;;;;;;;;;;21.10;69.60;;;;;;5071533;28;20422;-78
2022/06/02 14:50:09;;;;;;;;;;;21.10;67.70;;;;;;5073615;28;20296;-76
2022/06/02 14:52:46;;;;;;;;;;;21.10;72.60;;;;;;5081540;28;19908;-76
2022/06/02 14:55:26;;;;;;;;;;;21.10;72.20;;;;;;5069266;28;19908;-76
2022/06/02 14:58:06;;;;;;;;;;;21.10;73.90;;;;;;5076087;28;20281;-76
2022/06/02 15:00:56;;;;;;;;;;;20.90;71.60;;;;;;5076488;28;19915;-76
2022/06/02 15:03:34;;;;;;;;;;;20.80;77.10;;;;;;5081827;28;19912;-76
2022/06/02 15:06:01;;;;;;;;;;;20.80;72.40;;;;;;5082069;28;19912;-76
2022/06/02 15:08:45;;;;;;;;;;;20.90;76.30;;;;;;5075631;28;19913;-75
2022/06/02 15:11:30;;;;;;;;;;;20.90;72.70;;;;;;5071509;28;19923;-75
2022/06/02 15:14:15;;;;;;;;;;;21.00;71.40;;;;;;5068353;28;20404;-75
2022/06/02 15:17:01;;;;;;;;;;;21.40;72.10;;;;;;5084682;28;19916;-75
2022/06/02 15:19:45;;;;;;;;;;;21.50;72.80;;;;;;5078939;28;20438;-75
2022/06/02 15:22:23;;;;;;;;;;;21.40;71.40;;;;;;5095079;28;19926;-75
2022/06/02 15:24:55;;;;;;;;;;;21.40;73.00;;;;;;5070577;28;19913;-75